Terminal Aerodrome Forecast
Issued by NWS Duluth, MN

Home | Current Version | Previous Version | Text Only | Print | Product List | Glossary On
Versions: 1 2 3 4 5 6 7 8 9 10 11 12 13 14 15 16 17 18 19 20 21
000
FTUS43 KDLH 251700
TAFINL
TAF
KINL 251721Z 2518/2618 19005KT P6SM SCT025 BKN060
      TEMPO 2520/2522 5SM -TSRA BR BKN025CB BKN050
     FM260100 21003KT 6SM BR BKN018 OVC060
     FM260500 26004KT 3SM BR BKN014 OVC030
     FM260900 VRB03KT 6SM BR SCT022
     FM261300 23008KT P6SM SKC=

USA.gov is the U.S. government's official web portal to all federal, state and local government web resources and services.